| time (UTC) | temp F | wind direction | speed MPH | gust MPH | rain 1hr in | rain 24hr in | rain mn in | humidity % | barometer mb |
| 20260508115012 | 68 | 201 | 1.0 | 4.0 | 0.00 | 0.02 | 0.02 | 59 | 1012.2 |
| 20260508114012 | 67 | 147 | 1.0 | 7.0 | 0.00 | 0.02 | 0.02 | 61 | 1012.0 |
| 20260508113012 | 65 | 118 | 3.0 | 7.0 | 0.00 | 0.02 | 0.02 | 65 | 1011.9 |
| 20260508112012 | 64 | 102 | 4.0 | 9.0 | 0.00 | 0.02 | 0.02 | 68 | 1011.9 |
| 20260508111012 | 64 | 103 | 4.0 | 7.0 | 0.00 | 0.02 | 0.02 | 69 | 1012.1 |
| 20260508104011 | 64 | 74 | 2.0 | 4.0 | 0.00 | 0.02 | 0.02 | 66 | 1012.2 |
| 20260508103012 | 64 | 75 | 2.0 | 6.0 | 0.00 | 0.02 | 0.02 | 64 | 1012.3 |
| 20260508102012 | 65 | 93 | 2.0 | 9.0 | 0.00 | 0.02 | 0.02 | 60 | 1012.3 |
| 20260508101012 | 66 | 100 | 7.0 | 9.0 | 0.00 | 0.02 | 0.02 | 58 | 1012.3 |
| 20260508100013 | 69 | 74 | 2.0 | 7.0 | 0.00 | 0.02 | 0.02 | 54 | 1012.4 |
| 20260508095011 | 66 | 359 | 2.0 | 8.0 | 0.00 | 0.02 | 0.02 | 55 | 1012.4 |
| 20260508094012 | 66 | 118 | 3.0 | 7.0 | 0.00 | 0.02 | 0.02 | 60 | 1012.1 |
| 20260508093012 | 65 | 103 | 1.0 | 6.0 | 0.00 | 0.02 | 0.02 | 58 | 1012.3 |
| 20260508092012 | 66 | 67 | 2.0 | 6.0 | 0.00 | 0.02 | 0.02 | 56 | 1012.4 |
| 20260508090012 | 63 | 112 | 2.0 | 4.0 | 0.00 | 0.02 | 0.02 | 63 | 1011.9 |
| 20260508085011 | 64 | 60 | 2.0 | 4.0 | 0.00 | 0.02 | 0.02 | 62 | 1012.0 |
| 20260508084012 | 63 | 0 | 0.0 | 2.0 | 0.00 | 0.02 | 0.02 | 64 | 1011.9 |
| 20260508083012 | 62 | 0 | 0.0 | 2.0 | 0.00 | 0.02 | 0.02 | 68 | 1011.7 |
| 20260508082012 | 62 | 0 | 0.0 | 2.0 | 0.00 | 0.02 | 0.02 | 68 | 1011.9 |
| 20260508081012 | 61 | 0 | 0.0 | 2.0 | 0.00 | 0.02 | 0.02 | 72 | 1011.7 |
| 20260508080012 | 61 | 16 | 1.0 | 2.0 | 0.00 | 0.02 | 0.02 | 76 | 1011.4 |
| 20260508075012 | 61 | 0 | 0.0 | 2.0 | 0.00 | 0.02 | 0.02 | 76 | 1011.5 |
| 20260508074012 | 62 | 0 | 0.0 | 2.0 | 0.00 | 0.02 | 0.02 | 70 | 1011.5 |
| 20260508073011 | 62 | 0 | 0.0 | 2.0 | 0.00 | 0.02 | 0.02 | 67 | 1011.3 |
| 20260508072012 | 61 | 0 | 0.0 | 2.0 | 0.00 | 0.02 | 0.02 | 69 | 1011.0 |
| 20260508071011 | 60 | 0 | 0.0 | 2.0 | 0.00 | 0.02 | 0.02 | 71 | 1011.1 |
| 20260508070012 | 59 | 275 | 1.0 | 2.0 | 0.00 | 0.02 | 0.02 | 73 | 1011.2 |
| 20260508064012 | 58 | 0 | 0.0 | 2.0 | 0.00 | 0.02 | 0.02 | 74 | 1010.8 |
| 20260508063011 | 58 | 0 | 0.0 | 2.0 | 0.00 | 0.02 | 0.02 | 73 | 1010.9 |
| 20260508062012 | 58 | 248 | 2.0 | 2.0 | 0.00 | 0.02 | 0.02 | 72 | 1010.9 |
| 20260508060012 | 57 | 278 | 2.0 | 2.0 | 0.00 | 0.02 | 0.02 | 75 | 1010.8 |
| 20260508055011 | 57 | 259 | 2.0 | 2.0 | 0.00 | 0.02 | 0.02 | 75 | 1010.7 |
| 20260508053011 | 56 | 285 | 2.0 | 4.0 | 0.00 | 0.02 | 0.02 | 78 | 1010.4 |
| 20260508052012 | 56 | 261 | 1.0 | 4.0 | 0.00 | 0.02 | 0.02 | 75 | 1010.5 |
| 20260508050012 | 56 | 273 | 2.0 | 4.0 | 0.00 | 0.02 | 0.02 | 78 | 1010.4 |
| 20260508045011 | 55 | 275 | 2.0 | 4.0 | 0.00 | 0.02 | 0.02 | 79 | 1010.6 |
| 20260508044012 | 55 | 276 | 2.0 | 4.0 | 0.00 | 0.02 | 0.02 | 78 | 1010.4 |
| 20260508043013 | 54 | 283 | 2.0 | 4.0 | 0.00 | 0.02 | 0.02 | 80 | 1010.2 |
| 20260508042011 | 54 | 278 | 2.0 | 4.0 | 0.01 | 0.02 | 0.02 | 81 | 1010.0 |
| 20260508041011 | 54 | 280 | 2.0 | 4.0 | 0.02 | 0.02 | 0.02 | 83 | 1010.0 |
| 20260508035011 | 54 | 279 | 2.0 | 4.0 | 0.02 | 0.02 | 0.02 | 84 | 1010.2 |
| 20260508034011 | 55 | 256 | 2.0 | 4.0 | 0.02 | 0.02 | 0.02 | 84 | 1009.9 |
| 20260508033011 | 55 | 239 | 1.0 | 2.0 | 0.02 | 0.02 | 0.02 | 83 | 1010.0 |
| 20260508031011 | 57 | 240 | 2.0 | 6.0 | 0.00 | 0.00 | 0.00 | 85 | 1010.1 |
| 20260508025011 | 59 | 210 | 2.0 | 4.0 | 0.00 | 0.00 | 0.00 | 70 | 1009.6 |
| 20260508024011 | 58 | 158 | 1.0 | 2.0 | 0.00 | 0.00 | 0.00 | 71 | 1009.8 |
| 20260508023011 | 59 | 54 | 2.0 | 4.0 | 0.00 | 0.00 | 0.00 | 70 | 1009.5 |
| 20260508022011 | 60 | 292 | 2.0 | 4.0 | 0.00 | 0.00 | 0.00 | 60 | 1009.4 |
| 20260508020011 | 60 | 295 | 1.0 | 4.0 | 0.00 | 0.00 | 0.00 | 61 | 1009.6 |
| 20260508015011 | 61 | 276 | 2.0 | 4.0 | 0.00 | 0.00 | 0.00 | 60 | 1009.8 |
| 20260508013010 | 62 | 322 | 1.0 | 4.0 | 0.00 | 0.00 | 0.00 | 61 | 1009.5 |
| 20260508012011 | 61 | 300 | 1.0 | 4.0 | 0.00 | 0.00 | 0.00 | 65 | 1009.5 |
| 20260508011011 | 61 | 294 | 2.0 | 4.0 | 0.00 | 0.00 | 0.00 | 62 | 1009.4 |
| 20260508010011 | 61 | 304 | 1.0 | 4.0 | 0.00 | 0.00 | 0.00 | 63 | 1009.5 |
| 20260508005010 | 60 | 243 | 2.0 | 4.0 | 0.00 | 0.00 | 0.00 | 65 | 1009.3 |
| 20260508004011 | 60 | 0 | 0.0 | 2.0 | 0.00 | 0.00 | 0.00 | 67 | 1009.3 |
| 20260508003010 | 60 | 320 | 1.0 | 4.0 | 0.00 | 0.00 | 0.00 | 67 | 1009.4 |
| 20260508002012 | 60 | 307 | 1.0 | 4.0 | 0.00 | 0.00 | 0.00 | 66 | 1009.4 |
| 20260508001010 | 60 | 0 | 0.0 | 4.0 | 0.00 | 0.00 | 0.00 | 67 | 1009.6 |
| 20260508000011 | 60 | 0 | 0.0 | 2.0 | 0.00 | 0.00 | 0.00 | 67 | 1009.8 |
| 20260507234011 | 60 | 266 | 1.0 | 2.0 | 0.00 | 0.00 | 0.00 | 69 | 1010.1 |
| 20260507233011 | 60 | 272 | 2.0 | 4.0 | 0.00 | 0.00 | 0.00 | 70 | 1010.3 |
| 20260507232011 | 59 | 276 | 1.0 | 4.0 | 0.00 | 0.00 | 0.00 | 71 | 1010.2 |
| 20260507230013 | 60 | 274 | 2.0 | 2.0 | 0.00 | 0.00 | 0.00 | 70 | 1010.4 |
| 20260507225010 | 60 | 0 | 0.0 | 2.0 | 0.00 | 0.00 | 0.00 | 69 | 1010.4 |
| 20260507224011 | 60 | 248 | 1.0 | 2.0 | 0.00 | 0.00 | 0.00 | 69 | 1010.6 |
| 20260507222011 | 60 | 265 | 2.0 | 2.0 | 0.00 | 0.00 | 0.00 | 70 | 1010.7 |
| 20260507221011 | 60 | 265 | 1.0 | 2.0 | 0.00 | 0.00 | 0.00 | 69 | 1010.5 |
| 20260507220011 | 60 | 279 | 1.0 | 2.0 | 0.00 | 0.00 | 0.00 | 70 | 1010.7 |
| 20260507214010 | 60 | 266 | 2.0 | 2.0 | 0.00 | 0.00 | 0.00 | 73 | 1010.6 |
| 20260507212011 | 59 | 0 | 0.0 | 2.0 | 0.00 | 0.00 | 0.00 | 76 | 1010.9 |
| 20260507211010 | 59 | 0 | 0.0 | 2.0 | 0.00 | 0.00 | 0.00 | 76 | 1011.0 |
| 20260507210013 | 59 | 271 | 2.0 | 2.0 | 0.00 | 0.00 | 0.00 | 78 | 1010.8 |
| 20260507205010 | 59 | 281 | 2.0 | 2.0 | 0.00 | 0.00 | 0.00 | 78 | 1010.9 |
| 20260507204011 | 60 | 239 | 1.0 | 2.0 | 0.00 | 0.00 | 0.00 | 77 | 1010.9 |
| 20260507203010 | 59 | 266 | 1.0 | 4.0 | 0.00 | 0.00 | 0.00 | 79 | 1011.1 |
| 20260507202010 | 59 | 272 | 1.0 | 2.0 | 0.00 | 0.00 | 0.00 | 79 | 1011.0 |
| 20260507201010 | 59 | 270 | 2.0 | 2.0 | 0.00 | 0.00 | 0.00 | 80 | 1011.1 |
| 20260507200011 | 59 | 247 | 1.0 | 2.0 | 0.00 | 0.00 | 0.00 | 82 | 1011.1 |
| 20260507195010 | 59 | 0 | 0.0 | 2.0 | 0.00 | 0.00 | 0.00 | 84 | 1010.9 |
| 20260507194010 | 59 | 0 | 0.0 | 2.0 | 0.00 | 0.00 | 0.00 | 85 | 1010.9 |
| 20260507192012 | 59 | 280 | 1.0 | 2.0 | 0.00 | 0.00 | 0.00 | 87 | 1010.6 |
| 20260507190011 | 59 | 272 | 2.0 | 2.0 | 0.00 | 0.01 | 0.00 | 87 | 1010.6 |
| 20260507185010 | 59 | 0 | 0.0 | 2.0 | 0.00 | 0.01 | 0.00 | 88 | 1010.6 |
| 20260507184010 | 58 | 269 | 1.0 | 2.0 | 0.00 | 0.01 | 0.00 | 88 | 1010.6 |
| 20260507183010 | 58 | 273 | 2.0 | 2.0 | 0.00 | 0.01 | 0.00 | 87 | 1010.5 |
| 20260507182010 | 58 | 0 | 0.0 | 2.0 | 0.00 | 0.01 | 0.00 | 87 | 1010.4 |
| 20260507181010 | 59 | 0 | 0.0 | 2.0 | 0.00 | 0.01 | 0.00 | 86 | 1010.4 |
| 20260507180010 | 59 | 0 | 0.0 | 0.0 | 0.00 | 0.01 | 0.00 | 85 | 1010.6 |
| 20260507175010 | 60 | 0 | 0.0 | 0.0 | 0.00 | 0.01 | 0.00 | 85 | 1010.5 |
| 20260507174009 | 60 | 0 | 0.0 | 0.0 | 0.00 | 0.01 | 0.00 | 84 | 1010.3 |
| 20260507173010 | 61 | 0 | 0.0 | 0.0 | 0.00 | 0.01 | 0.00 | 83 | 1010.1 |
| 20260507172010 | 61 | 0 | 0.0 | 2.0 | 0.00 | 0.01 | 0.00 | 82 | 1010.4 |
| 20260507171009 | 60 | 5 | 1.0 | 2.0 | 0.00 | 0.01 | 0.00 | 82 | 1010.6 |
| 20260507170010 | 61 | 0 | 0.0 | 2.0 | 0.00 | 0.01 | 0.00 | 84 | 1010.6 |
| 20260507165010 | 60 | 4 | 2.0 | 4.0 | 0.00 | 0.01 | 0.00 | 84 | 1010.5 |
| 20260507164010 | 60 | 0 | 0.0 | 4.0 | 0.00 | 0.01 | 0.00 | 84 | 1010.7 |
| 20260507163009 | 60 | 6 | 2.0 | 4.0 | 0.00 | 0.01 | 0.00 | 86 | 1011.0 |
| 20260507161009 | 61 | 18 | 1.0 | 4.0 | 0.00 | 0.04 | 0.00 | 87 | 1011.0 |
| 20260507160010 | 61 | 0 | 0.0 | 2.0 | 0.00 | 0.08 | 0.00 | 87 | 1011.2 |
| 20260507155010 | 61 | 0 | 0.0 | 4.0 | 0.00 | 0.09 | 0.00 | 86 | 1011.2 |
| 20260507154010 | 61 | 0 | 0.0 | 4.0 | 0.00 | 0.11 | 0.00 | 86 | 1011.0 |
| 20260507153009 | 61 | 55 | 1.0 | 4.0 | 0.00 | 0.12 | 0.00 | 86 | 1011.1 |
| 20260507152010 | 61 | 26 | 1.0 | 4.0 | 0.00 | 0.12 | 0.00 | 86 | 1011.3 |
| 20260507150010 | 61 | 18 | 2.0 | 4.0 | 0.00 | 0.13 | 0.00 | 85 | 1011.5 |
| 20260507144010 | 60 | 59 | 2.0 | 6.0 | 0.00 | 0.14 | 0.00 | 87 | 1011.4 |
| 20260507143009 | 60 | 89 | 4.0 | 7.0 | 0.00 | 0.15 | 0.00 | 88 | 1011.2 |
| 20260507142010 | 61 | 82 | 4.0 | 7.0 | 0.00 | 0.15 | 0.00 | 86 | 1011.4 |
| 20260507141009 | 62 | 74 | 3.0 | 6.0 | 0.00 | 0.15 | 0.00 | 85 | 1011.3 |
| 20260507140012 | 61 | 78 | 3.0 | 7.0 | 0.00 | 0.15 | 0.00 | 87 | 1011.4 |
| 20260507135009 | 61 | 79 | 4.0 | 7.0 | 0.00 | 0.15 | 0.00 | 86 | 1011.5 |
| 20260507134010 | 62 | 63 | 2.0 | 6.0 | 0.00 | 0.15 | 0.00 | 85 | 1011.7 |
| 20260507133009 | 62 | 63 | 3.0 | 6.0 | 0.00 | 0.15 | 0.00 | 85 | 1011.7 |
| 20260507132009 | 64 | 72 | 3.0 | 6.0 | 0.00 | 0.15 | 0.00 | 83 | 1011.7 |
| 20260507131009 | 64 | 45 | 2.0 | 4.0 | 0.00 | 0.15 | 0.00 | 80 | 1011.8 |
| 20260507130010 | 63 | 68 | 2.0 | 7.0 | 0.00 | 0.15 | 0.00 | 81 | 1011.6 |
| 20260507125011 | 64 | 64 | 3.0 | 6.0 | 0.00 | 0.15 | 0.00 | 80 | 1011.6 |
| 20260507124010 | 64 | 0 | 0.0 | 6.0 | 0.00 | 0.15 | 0.00 | 79 | 1011.8 |
| 20260507123010 | 64 | 79 | 3.0 | 6.0 | 0.00 | 0.15 | 0.00 | 81 | 1011.9 |
| 20260507121010 | 65 | 66 | 2.0 | 4.0 | 0.00 | 0.15 | 0.00 | 79 | 1012.2 |